createdAt,value
2019-02-14T00:01:49.308Z,50.67
2019-02-14T00:04:19.736Z,54.30
2019-02-14T00:06:50.340Z,49.63
2019-02-14T00:09:20.935Z,42.53
2019-02-14T00:11:51.387Z,49.07
2019-02-14T00:14:21.824Z,50.00
2019-02-14T00:16:52.296Z,51.77
2019-02-14T00:19:22.785Z,54.50
2019-02-14T00:21:53.477Z,39.40
2019-02-14T00:24:23.893Z,42.07
2019-02-14T00:26:54.307Z,48.47
2019-02-14T00:29:24.689Z,40.60
2019-02-14T00:31:56.410Z,46.13
2019-02-14T00:34:26.795Z,42.57
2019-02-14T00:36:57.321Z,37.77
2019-02-14T00:39:27.771Z,37.13
2019-02-14T00:41:58.029Z,30.33
2019-02-14T00:44:28.587Z,42.90
2019-02-14T00:46:58.903Z,51.33
2019-02-14T00:49:29.357Z,41.70
2019-02-14T00:51:59.740Z,34.13
2019-02-14T00:54:30.439Z,41.37
2019-02-14T00:57:00.822Z,44.27
2019-02-14T00:59:31.868Z,67.60
2019-02-14T01:02:02.198Z,39.97
2019-02-14T01:04:32.565Z,56.83
2019-02-14T01:07:04.225Z,51.00
2019-02-14T01:09:34.623Z,54.23
2019-02-14T01:12:05.258Z,58.97
2019-02-14T01:14:35.710Z,54.93
2019-02-14T01:17:06.039Z,62.13
2019-02-14T01:19:36.412Z,57.53
2019-02-14T01:22:06.979Z,56.53
2019-02-14T01:24:37.379Z,38.20
2019-02-14T01:27:09.269Z,40.60
2019-02-14T01:29:39.729Z,41.17
2019-02-14T01:32:10.111Z,34.57
2019-02-14T01:34:40.528Z,31.43
2019-02-14T01:37:11.125Z,47.93
2019-02-14T01:39:41.511Z,29.87
2019-02-14T01:42:11.849Z,36.37
2019-02-14T01:44:42.247Z,46.13
2019-02-14T01:47:12.905Z,46.87
2019-02-14T01:49:43.251Z,28.10
2019-02-14T01:52:13.631Z,41.17
2019-02-14T01:54:44.091Z,43.73
2019-02-14T01:57:14.524Z,34.37
2019-02-14T01:59:44.939Z,41.90
2019-02-14T02:02:15.471Z,41.53
2019-02-14T02:04:45.828Z,45.87
2019-02-14T02:07:16.227Z,41.77
2019-02-14T02:09:46.545Z,44.37
2019-02-14T02:12:16.959Z,50.43
2019-02-14T02:14:48.639Z,44.43
2019-02-14T02:17:18.967Z,35.53
2019-02-14T02:19:49.979Z,37.57
2019-02-14T02:22:20.341Z,30.43
2019-02-14T02:24:51.139Z,35.47
2019-02-14T02:27:21.908Z,40.00
2019-02-14T02:29:52.381Z,36.03
2019-02-14T02:32:22.841Z,31.60
2019-02-14T02:34:53.437Z,43.33
2019-02-14T02:37:23.812Z,30.10
2019-02-14T02:39:54.629Z,33.13
2019-02-14T02:42:25.126Z,27.60
2019-02-14T02:44:55.581Z,36.90
2019-02-14T02:47:25.890Z,37.10
2019-02-14T02:49:56.314Z,47.00
2019-02-14T02:52:26.654Z,35.33
2019-02-14T02:54:57.263Z,25.50
2019-02-14T02:57:29.558Z,62.03
2019-02-14T02:59:59.941Z,38.63
2019-02-14T03:02:30.371Z,30.50
2019-02-14T03:05:00.796Z,42.47
2019-02-14T03:07:31.173Z,30.73
2019-02-14T03:10:01.509Z,31.93
2019-02-14T03:12:32.123Z,51.97
2019-02-14T03:15:02.472Z,34.73
2019-02-14T03:17:33.099Z,40.57
2019-02-14T03:20:03.879Z,38.47
2019-02-14T03:22:34.309Z,29.17
2019-02-14T03:25:05.454Z,27.13
2019-02-14T03:27:36.220Z,34.90
2019-02-14T03:30:07.184Z,38.03
2019-02-14T03:32:37.600Z,26.93
2019-02-14T03:35:08.547Z,32.27
2019-02-14T03:37:39.111Z,28.10
2019-02-14T03:40:10.758Z,37.83
2019-02-14T03:42:41.299Z,32.17
2019-02-14T03:45:14.435Z,35.93
2019-02-14T03:47:44.882Z,29.43
2019-02-14T03:50:15.643Z,30.63
2019-02-14T03:52:46.093Z,27.13
2019-02-14T03:55:16.440Z,39.20
2019-02-14T03:57:46.874Z,26.10
2019-02-14T04:00:17.323Z,37.33
2019-02-14T04:02:47.732Z,29.07
2019-02-14T04:05:18.302Z,39.37
2019-02-14T04:07:48.681Z,37.23
2019-02-14T04:10:19.047Z,31.03
2019-02-14T04:12:49.597Z,23.10
2019-02-14T04:15:19.950Z,28.83
2019-02-14T04:17:50.519Z,31.53
2019-02-14T04:20:20.903Z,40.47
2019-02-14T04:22:51.293Z,39.73
2019-02-14T04:25:24.259Z,31.43
2019-02-14T04:27:54.934Z,31.57
2019-02-14T04:30:25.397Z,34.67
2019-02-14T04:32:55.787Z,30.27
2019-02-14T04:35:26.195Z,23.20
2019-02-14T04:37:56.719Z,45.20
2019-02-14T04:40:33.415Z,28.10
2019-02-14T04:42:59.281Z,35.27
2019-02-14T04:45:29.757Z,27.23
2019-02-14T04:48:01.166Z,29.57
2019-02-14T04:50:31.552Z,35.10
2019-02-14T04:53:03.381Z,33.00
2019-02-14T04:55:33.739Z,22.60
2019-02-14T04:58:04.151Z,27.87
2019-02-14T05:00:34.714Z,33.80
2019-02-14T05:03:05.603Z,31.50
2019-02-14T05:05:36.233Z,50.40
2019-02-14T05:08:06.671Z,23.80
2019-02-14T05:10:37.070Z,30.17
2019-02-14T05:13:07.420Z,37.67
2019-02-14T05:15:37.830Z,34.70
2019-02-14T05:18:08.619Z,39.23
2019-02-14T05:20:38.951Z,44.77
2019-02-14T05:23:09.315Z,27.83
2019-02-14T05:25:39.613Z,35.13
2019-02-14T05:28:09.983Z,35.10
2019-02-14T05:30:41.675Z,33.83
2019-02-14T05:33:12.056Z,30.83
2019-02-14T05:35:42.387Z,30.97
2019-02-14T05:38:12.827Z,31.43
2019-02-14T05:40:43.293Z,42.73
2019-02-14T05:43:14.039Z,44.40
2019-02-14T05:45:44.635Z,40.93
2019-02-14T05:48:15.019Z,28.63
2019-02-14T05:50:48.454Z,40.53
2019-02-14T05:53:18.796Z,34.87
2019-02-14T05:55:49.448Z,36.13
2019-02-14T05:58:19.820Z,27.93
2019-02-14T06:00:50.194Z,29.03
2019-02-14T06:03:20.872Z,25.13
2019-02-14T06:05:51.359Z,39.73
2019-02-14T06:08:21.667Z,29.00
2019-02-14T06:10:52.235Z,34.33
2019-02-14T06:13:22.609Z,36.03
2019-02-14T06:15:53.091Z,38.90
2019-02-14T06:18:23.437Z,28.93
2019-02-14T06:20:56.977Z,29.27
2019-02-14T06:23:28.171Z,32.20
2019-02-14T06:25:58.595Z,28.30
2019-02-14T06:28:29.147Z,25.70
2019-02-14T06:31:00.545Z,25.70
2019-02-14T06:33:31.034Z,30.13
2019-02-14T06:36:01.429Z,28.60
2019-02-14T06:38:32.040Z,32.97
2019-02-14T06:41:03.644Z,32.17
2019-02-14T06:43:34.262Z,39.80
2019-02-14T06:46:05.814Z,34.57
2019-02-14T06:48:36.133Z,31.47
2019-02-14T06:51:06.732Z,30.20
2019-02-14T06:53:37.072Z,25.63
2019-02-14T06:56:07.511Z,32.23
2019-02-14T06:58:37.863Z,25.80
2019-02-14T07:01:08.257Z,20.17
2019-02-14T07:03:38.767Z,29.80
2019-02-14T07:06:09.450Z,37.80
2019-02-14T07:08:39.806Z,30.83
2019-02-14T07:11:11.410Z,21.37
2019-02-14T07:13:41.835Z,27.80
2019-02-14T07:16:12.539Z,25.43
2019-02-14T07:18:42.985Z,25.10
2019-02-14T07:21:13.375Z,28.83
2019-02-14T07:23:44.197Z,30.37
2019-02-14T07:26:14.580Z,33.60
2019-02-14T07:28:45.231Z,30.27
2019-02-14T07:31:15.540Z,37.63
2019-02-14T07:33:45.984Z,29.87
2019-02-14T07:36:16.438Z,40.87
2019-02-14T07:38:46.887Z,31.57
2019-02-14T07:41:17.317Z,35.63
2019-02-14T07:43:47.679Z,34.57
2019-02-14T07:46:22.787Z,36.43
2019-02-14T07:48:50.278Z,23.17
2019-02-14T07:51:21.084Z,29.70
2019-02-14T07:53:51.431Z,26.43
2019-02-14T07:56:21.868Z,30.00
2019-02-14T07:58:52.264Z,24.53
2019-02-14T08:01:22.879Z,26.13
2019-02-14T08:03:53.365Z,34.73
2019-02-14T08:06:23.731Z,55.17
2019-02-14T08:08:54.109Z,31.57
2019-02-14T08:11:24.682Z,22.47
2019-02-14T08:13:55.020Z,27.63
2019-02-14T08:16:26.713Z,25.67
2019-02-14T08:18:57.038Z,22.33
2019-02-14T08:21:28.550Z,28.83
2019-02-14T08:24:00.192Z,24.97
2019-02-14T08:26:30.570Z,25.20
2019-02-14T08:29:00.956Z,30.33
2019-02-14T08:31:32.041Z,31.30
2019-02-14T08:34:02.644Z,26.67
2019-02-14T08:36:33.056Z,32.40
2019-02-14T08:39:03.851Z,30.83
2019-02-14T08:41:34.299Z,35.37
2019-02-14T08:44:04.947Z,37.60
2019-02-14T08:46:35.533Z,30.17
2019-02-14T08:49:06.099Z,31.73
2019-02-14T08:51:36.761Z,36.37
2019-02-14T08:54:07.171Z,35.33
2019-02-14T08:56:37.543Z,34.17
2019-02-14T08:59:07.974Z,27.33
2019-02-14T09:01:38.603Z,25.57
2019-02-14T09:04:08.906Z,27.53
2019-02-14T09:06:41.020Z,37.00
2019-02-14T09:09:11.496Z,27.83
2019-02-14T09:11:41.890Z,34.83
2019-02-14T09:14:12.282Z,30.87
2019-02-14T09:16:42.816Z,32.40
2019-02-14T09:19:13.597Z,29.80
2019-02-14T09:21:44.354Z,32.10
2019-02-14T09:24:14.994Z,26.00
2019-02-14T09:26:45.384Z,26.93
2019-02-14T09:29:15.919Z,29.47
2019-02-14T09:31:46.274Z,22.40
2019-02-14T09:34:16.668Z,31.60
2019-02-14T09:36:47.054Z,28.87
2019-02-14T09:39:17.458Z,25.87
2019-02-14T09:41:47.853Z,36.80
2019-02-14T09:44:18.445Z,30.27
2019-02-14T09:46:48.803Z,23.40
2019-02-14T09:49:19.240Z,33.20
2019-02-14T09:51:49.632Z,37.50
2019-02-14T09:54:20.048Z,28.03
2019-02-14T09:56:50.499Z,26.20
2019-02-14T09:59:20.951Z,28.87
2019-02-14T10:01:51.430Z,34.40
2019-02-14T10:04:21.779Z,20.60
2019-02-14T10:06:52.211Z,18.83
2019-02-14T10:09:22.810Z,24.97
2019-02-14T10:11:53.349Z,25.00
2019-02-14T10:14:23.980Z,43.23
2019-02-14T10:16:54.342Z,27.27
2019-02-14T10:19:24.962Z,26.03
2019-02-14T10:21:55.300Z,27.17
2019-02-14T10:24:25.699Z,23.33
2019-02-14T10:26:56.276Z,22.10
2019-02-14T10:29:26.964Z,22.27
2019-02-14T10:31:57.336Z,27.53
2019-02-14T10:34:27.717Z,28.57
2019-02-14T10:36:58.136Z,29.70
2019-02-14T10:39:29.013Z,28.03
2019-02-14T10:41:59.512Z,34.40
2019-02-14T10:44:29.876Z,18.93
2019-02-14T10:47:00.570Z,22.40
2019-02-14T10:49:30.881Z,26.70
2019-02-14T10:52:01.754Z,26.33
2019-02-14T10:54:32.160Z,24.37
2019-02-14T10:57:02.568Z,23.73
2019-02-14T10:59:32.956Z,27.13
2019-02-14T11:02:04.007Z,19.70
2019-02-14T11:04:34.310Z,19.87
2019-02-14T11:07:04.739Z,26.93
2019-02-14T11:09:35.136Z,19.27
2019-02-14T11:12:05.669Z,29.37
2019-02-14T11:14:36.114Z,24.90
2019-02-14T11:17:06.874Z,28.27
2019-02-14T11:19:37.257Z,21.87
2019-02-14T11:22:07.834Z,15.60
2019-02-14T11:24:38.251Z,21.90
2019-02-14T11:27:08.632Z,19.93
2019-02-14T11:29:39.466Z,19.83
2019-02-14T11:32:09.866Z,26.37
2019-02-14T11:34:40.180Z,28.57
2019-02-14T11:37:10.500Z,15.20
2019-02-14T11:39:41.034Z,20.83
2019-02-14T11:42:11.439Z,19.00
2019-02-14T11:44:41.785Z,27.67
2019-02-14T11:47:12.215Z,26.53
2019-02-14T11:49:42.618Z,28.37
2019-02-14T11:52:13.027Z,18.67
2019-02-14T11:54:43.401Z,24.57
2019-02-14T11:57:13.762Z,20.23
2019-02-14T11:59:44.470Z,22.40
2019-02-14T12:02:15.144Z,19.23
2019-02-14T12:04:45.468Z,21.77
2019-02-14T12:07:16.379Z,18.87
2019-02-14T12:09:46.703Z,20.30
2019-02-14T12:12:17.620Z,19.47
2019-02-14T12:14:47.992Z,27.37
2019-02-14T12:17:18.332Z,24.60
2019-02-14T12:19:49.014Z,22.57
2019-02-14T12:22:19.641Z,27.57
2019-02-14T12:24:50.095Z,15.60
2019-02-14T12:27:20.512Z,22.03
2019-02-14T12:29:50.872Z,21.47
2019-02-14T12:32:21.250Z,22.23
2019-02-14T12:34:51.710Z,22.13
2019-02-14T12:37:22.074Z,15.30
2019-02-14T12:39:52.799Z,21.63
2019-02-14T12:42:23.230Z,18.43
2019-02-14T12:44:54.110Z,19.73
2019-02-14T12:47:24.437Z,19.33
2019-02-14T12:49:54.818Z,18.33
2019-02-14T12:52:25.212Z,16.60
2019-02-14T12:54:56.398Z,26.83
2019-02-14T12:57:26.748Z,14.03
2019-02-14T12:59:57.317Z,20.00
2019-02-14T13:02:27.624Z,15.47
2019-02-14T13:04:58.017Z,17.50
2019-02-14T13:07:28.402Z,13.03
2019-02-14T13:09:59.088Z,17.43
2019-02-14T13:12:29.424Z,18.37
2019-02-14T13:14:59.852Z,22.07
2019-02-14T13:17:30.386Z,17.20
2019-02-14T13:20:01.163Z,21.77
2019-02-14T13:22:31.513Z,18.40
2019-02-14T13:25:01.921Z,19.17
2019-02-14T13:27:32.392Z,11.87
2019-02-14T13:30:02.897Z,14.67
2019-02-14T13:32:34.203Z,14.67
2019-02-14T13:35:05.383Z,15.83
2019-02-14T13:37:35.848Z,14.57
2019-02-14T13:40:06.539Z,11.10
2019-02-14T13:42:36.890Z,14.10
2019-02-14T13:45:09.956Z,13.43
2019-02-14T13:47:40.521Z,15.33
2019-02-14T13:50:11.894Z,8.73
2019-02-14T13:52:42.386Z,10.83
2019-02-14T13:55:12.742Z,15.30
2019-02-14T13:57:43.155Z,15.17
2019-02-14T14:00:17.314Z,16.67
2019-02-14T14:02:47.736Z,14.37
2019-02-14T14:05:18.050Z,9.57
2019-02-14T14:07:48.672Z,17.70
2019-02-14T14:10:19.045Z,14.03
2019-02-14T14:12:49.406Z,11.87
2019-02-14T14:15:19.802Z,14.57
2019-02-14T14:17:50.667Z,25.40
2019-02-14T14:20:21.067Z,33.43
2019-02-14T14:22:51.408Z,14.90
2019-02-14T14:25:22.100Z,20.43
2019-02-14T14:27:52.597Z,11.60
2019-02-14T14:30:23.038Z,17.27
2019-02-14T14:32:53.485Z,13.03
2019-02-14T14:35:24.027Z,11.93
2019-02-14T14:37:54.436Z,16.53
2019-02-14T14:40:24.857Z,17.13
2019-02-14T14:43:29.180Z,11.50
2019-02-14T14:46:15.842Z,15.57
2019-02-14T14:48:47.095Z,15.30
2019-02-14T14:51:17.484Z,14.60
2019-02-14T14:53:47.934Z,23.83
2019-02-14T14:56:18.619Z,19.30
2019-02-14T14:58:48.948Z,14.60
2019-02-14T15:01:19.400Z,16.07
2019-02-14T15:03:52.003Z,17.23
2019-02-14T15:06:22.933Z,18.60
2019-02-14T15:08:54.085Z,11.47
2019-02-14T15:11:24.694Z,11.93
2019-02-14T15:13:55.098Z,16.27
2019-02-14T15:16:25.512Z,15.17
2019-02-14T15:18:57.131Z,18.07
2019-02-14T15:21:27.514Z,20.80
2019-02-14T15:23:58.162Z,18.60
2019-02-14T15:26:28.572Z,18.10
2019-02-14T15:28:59.094Z,76.60
2019-02-14T15:31:30.818Z,17.83
2019-02-14T15:34:01.202Z,23.13
2019-02-14T15:36:31.586Z,23.23
2019-02-14T15:39:02.493Z,17.87
2019-02-14T15:41:33.056Z,22.63
2019-02-14T15:44:03.432Z,14.97
2019-02-14T15:46:33.826Z,16.37
2019-02-14T15:49:04.188Z,16.03
2019-02-14T15:51:34.758Z,21.27
2019-02-14T15:54:07.339Z,16.07
2019-02-14T15:56:37.282Z,19.73
2019-02-14T15:59:08.316Z,16.50
2019-02-14T16:01:39.722Z,16.83
2019-02-14T16:04:11.134Z,16.43
2019-02-14T16:06:41.576Z,18.27
2019-02-14T16:09:14.364Z,23.73
2019-02-14T16:11:44.394Z,25.10
2019-02-14T16:14:16.978Z,19.37
2019-02-14T16:16:47.646Z,22.30
2019-02-14T16:19:19.002Z,24.73
2019-02-14T16:21:51.443Z,29.63
2019-02-14T16:24:21.761Z,36.50
2019-02-14T16:26:52.186Z,26.73
2019-02-14T16:29:24.580Z,25.90
2019-02-14T16:31:55.099Z,32.07
2019-02-14T16:34:25.982Z,24.73
2019-02-14T16:36:56.288Z,37.50
2019-02-14T16:39:28.610Z,31.97
2019-02-14T16:41:59.234Z,31.63
2019-02-14T16:44:29.844Z,30.83
2019-02-14T16:47:00.280Z,33.13
2019-02-14T16:49:30.982Z,32.30
2019-02-14T16:52:01.304Z,37.87
2019-02-14T16:54:31.832Z,31.20
2019-02-14T16:57:02.190Z,43.27
2019-02-14T16:59:32.843Z,36.67
2019-02-14T17:02:03.800Z,39.07
2019-02-14T17:04:34.655Z,37.70
2019-02-14T17:07:05.205Z,39.47
2019-02-14T17:09:35.707Z,67.63
2019-02-14T17:12:06.297Z,39.50
2019-02-14T17:14:36.718Z,40.57
2019-02-14T17:17:07.087Z,33.30
2019-02-14T17:19:37.544Z,35.50
2019-02-14T17:22:08.102Z,42.47
2019-02-14T17:24:39.703Z,44.73
2019-02-14T17:27:10.098Z,47.27
2019-02-14T17:29:40.850Z,39.20
2019-02-14T17:32:11.217Z,40.17
2019-02-14T17:34:41.642Z,30.07
2019-02-14T17:37:12.082Z,43.53
2019-02-14T17:39:44.290Z,46.60
2019-02-14T17:42:14.694Z,38.43
2019-02-14T17:44:45.266Z,35.27
2019-02-14T17:47:15.646Z,36.90
2019-02-14T17:49:46.087Z,38.90
2019-02-14T17:52:16.711Z,64.93
2019-02-14T17:54:47.178Z,40.37
2019-02-14T17:57:17.962Z,49.93
2019-02-14T17:59:48.739Z,42.33
2019-02-14T18:02:19.661Z,37.30
2019-02-14T18:04:50.525Z,44.73
2019-02-14T18:07:21.046Z,49.17
2019-02-14T18:09:52.835Z,57.50
2019-02-14T18:12:25.562Z,53.60
2019-02-14T18:14:55.975Z,48.43
2019-02-14T18:17:27.173Z,46.73
2019-02-14T18:19:58.315Z,51.17
2019-02-14T18:22:29.003Z,54.17
2019-02-14T18:24:59.820Z,54.63
2019-02-14T18:27:30.255Z,47.53
2019-02-14T18:30:00.820Z,45.13
2019-02-14T18:32:31.872Z,39.20
2019-02-14T18:35:02.245Z,39.87
2019-02-14T18:37:33.103Z,41.10
2019-02-14T18:40:03.428Z,37.03
2019-02-14T18:42:33.912Z,34.17
2019-02-14T18:45:04.508Z,40.57
2019-02-14T18:47:39.699Z,38.13
2019-02-14T18:50:07.299Z,42.83
2019-02-14T18:52:37.644Z,41.03
2019-02-14T18:55:08.889Z,43.67
2019-02-14T18:57:39.273Z,48.33
2019-02-14T19:00:14.244Z,47.50
2019-02-14T19:02:44.561Z,44.43
2019-02-14T19:05:14.946Z,41.77
2019-02-14T19:07:45.644Z,43.17
2019-02-14T19:10:16.873Z,51.60
2019-02-14T19:12:47.605Z,41.37
2019-02-14T19:15:18.045Z,37.67
2019-02-14T19:17:48.876Z,43.80
2019-02-14T19:20:19.257Z,44.27
2019-02-14T19:22:50.675Z,42.43
2019-02-14T19:25:21.275Z,42.07
2019-02-14T19:27:51.672Z,43.77
2019-02-14T19:30:22.318Z,47.63
2019-02-14T19:32:52.860Z,39.83
2019-02-14T19:35:23.534Z,40.03
2019-02-14T19:37:54.210Z,45.00
2019-02-14T19:40:24.889Z,52.17
2019-02-14T19:42:55.370Z,45.37
2019-02-14T19:45:36.077Z,47.50
2019-02-14T19:47:58.103Z,46.33
2019-02-14T19:50:28.477Z,51.87
2019-02-14T19:52:59.549Z,45.10
2019-02-14T19:55:30.393Z,48.67
2019-02-14T19:58:01.763Z,49.33
2019-02-14T20:00:32.494Z,49.10
2019-02-14T20:03:03.061Z,49.87
2019-02-14T20:05:33.508Z,48.77
2019-02-14T20:08:06.848Z,46.90
2019-02-14T20:10:37.321Z,45.90
2019-02-14T20:13:07.748Z,42.77
2019-02-14T20:15:38.182Z,48.40
2019-02-14T20:18:08.889Z,53.73
2019-02-14T20:20:39.622Z,43.70
2019-02-14T20:23:10.502Z,49.47
2019-02-14T20:25:40.971Z,52.03
2019-02-14T20:28:14.303Z,56.47
2019-02-14T20:30:44.650Z,52.07
2019-02-14T20:33:15.198Z,47.67
2019-02-14T20:35:45.617Z,68.77
2019-02-14T20:38:16.215Z,52.57
2019-02-14T20:40:47.011Z,49.93
2019-02-14T20:43:17.822Z,48.57
2019-02-14T20:45:48.216Z,48.47
2019-02-14T20:48:19.757Z,54.13
2019-02-14T20:50:50.135Z,81.93
2019-02-14T20:53:20.815Z,59.53
2019-02-14T20:55:51.265Z,54.90
2019-02-14T20:58:22.099Z,58.53
2019-02-14T21:00:52.527Z,57.97
2019-02-14T21:03:23.269Z,48.53
2019-02-14T21:05:53.629Z,48.07
2019-02-14T21:08:24.217Z,49.80
2019-02-14T21:10:54.579Z,52.43
2019-02-14T21:13:25.965Z,49.63
2019-02-14T21:15:56.537Z,48.13
2019-02-14T21:18:27.007Z,49.53
2019-02-14T21:20:57.335Z,49.23
2019-02-14T21:23:27.727Z,43.07
2019-02-14T21:25:58.288Z,47.93
2019-02-14T21:28:28.741Z,48.23
2019-02-14T21:30:59.220Z,47.40
2019-02-14T21:33:29.805Z,45.93
2019-02-14T21:36:00.407Z,46.57
2019-02-14T21:38:30.808Z,48.77
2019-02-14T21:41:01.310Z,48.97
2019-02-14T21:43:32.554Z,48.77
2019-02-14T21:46:03.253Z,42.80
2019-02-14T21:48:34.789Z,53.60
2019-02-14T21:51:05.673Z,51.73
2019-02-14T21:53:36.180Z,49.80
2019-02-14T21:56:06.650Z,57.03
2019-02-14T21:58:37.075Z,53.80
2019-02-14T22:01:08.025Z,54.63
2019-02-14T22:03:38.402Z,49.70
2019-02-14T22:06:08.849Z,56.67
2019-02-14T22:08:39.330Z,59.43
2019-02-14T22:11:09.791Z,60.97
2019-02-14T22:13:40.250Z,47.43
2019-02-14T22:16:10.726Z,45.33
2019-02-14T22:18:41.290Z,41.37
2019-02-14T22:21:11.729Z,37.53
2019-02-14T22:23:42.130Z,41.67
2019-02-14T22:26:12.551Z,48.27
2019-02-14T22:28:43.027Z,52.37
2019-02-14T22:31:13.782Z,56.87
2019-02-14T22:33:44.317Z,64.07
2019-02-14T22:36:14.815Z,60.13
2019-02-14T22:38:46.304Z,65.73
2019-02-14T22:41:17.037Z,64.47
2019-02-14T22:43:47.725Z,78.70
2019-02-14T22:46:18.188Z,69.53
2019-02-14T22:48:48.636Z,70.83
2019-02-14T22:51:19.031Z,68.27
2019-02-14T22:53:49.475Z,71.93
2019-02-14T22:56:20.109Z,71.70
2019-02-14T22:58:50.597Z,70.40
2019-02-14T23:01:21.204Z,79.30
2019-02-14T23:03:51.686Z,63.63
2019-02-14T23:06:22.073Z,64.57
2019-02-14T23:08:52.511Z,71.07
2019-02-14T23:11:23.211Z,81.00
2019-02-14T23:13:53.637Z,80.70
2019-02-14T23:16:24.049Z,80.33
2019-02-14T23:18:54.515Z,87.67
2019-02-14T23:21:24.994Z,99.23
2019-02-14T23:23:55.501Z,91.60
2019-02-14T23:26:25.977Z,84.03
2019-02-14T23:28:56.526Z,94.13
2019-02-14T23:31:27.357Z,86.27
2019-02-14T23:33:58.107Z,88.23
2019-02-14T23:36:28.603Z,100.40
2019-02-14T23:38:59.102Z,101.63
2019-02-14T23:41:29.896Z,95.57
2019-02-14T23:44:00.551Z,95.13
2019-02-14T23:46:31.373Z,116.67
2019-02-14T23:49:01.896Z,103.97
2019-02-14T23:51:32.230Z,115.17
2019-02-14T23:54:02.687Z,109.13
2019-02-14T23:56:33.460Z,112.07
2019-02-14T23:59:03.818Z,117.57
